Time;durP1;ratioP1;P1;durP2;ratioP2;P2;SDS_P1;SDS_P2;PMS_P1;PMS_P2;Temp;Humidity;BMP_temperature;BMP_pressure;BME280_temperature;BME280_humidity;BME280_pressure;Samples;Min_cycle;Max_cycle;Signal;HPM_P1;HPM_P2
2022/07/18 00:02:13;;;;;;;2.90;1.15;;;;;;;20.74;32.10;97967.97;4926676;28;20195;-76
2022/07/18 00:04:38;;;;;;;3.25;1.25;;;;;;;20.76;32.31;97972.97;4943863;28;20346;-76
2022/07/18 00:07:04;;;;;;;1.40;0.40;;;;;;;20.72;33.03;97975.44;4908804;28;20351;-76
2022/07/18 00:09:29;;;;;;;0.98;0.40;;;;;;;20.68;32.78;97969.16;4924322;28;20691;-76
2022/07/18 00:11:55;;;;;;;3.63;0.70;;;;;;;20.61;32.97;97978.50;4944426;28;20321;-76
2022/07/18 00:14:21;;;;;;;4.25;0.50;;;;;;;20.58;32.51;97969.28;4943499;28;20365;-76
2022/07/18 00:16:47;;;;;;;0.70;0.52;;;;;;;20.56;32.80;97960.84;4927985;28;20314;-76
2022/07/18 00:19:13;;;;;;;0.65;0.55;;;;;;;20.51;32.66;97972.31;4911851;28;20697;-76
2022/07/18 00:21:38;;;;;;;1.10;0.45;;;;;;;20.49;33.08;97977.09;4946194;28;20184;-76
2022/07/18 00:24:04;;;;;;;1.90;0.60;;;;;;;20.48;33.16;97969.47;4966377;28;20190;-76
2022/07/18 00:26:30;;;;;;;1.88;0.73;;;;;;;20.37;33.21;97969.63;4944184;28;20102;-76
2022/07/18 00:28:55;;;;;;;0.80;0.70;;;;;;;20.34;33.17;97970.19;4943625;28;20223;-76
2022/07/18 00:31:21;;;;;;;0.90;0.40;;;;;;;20.32;33.37;97972.34;4927779;28;20236;-76
2022/07/18 00:33:46;;;;;;;1.27;0.47;;;;;;;20.29;33.16;97966.81;4910742;28;20262;-76
2022/07/18 00:36:12;;;;;;;1.52;0.60;;;;;;;20.31;33.37;97959.41;4927389;28;20366;-76
2022/07/18 00:38:37;;;;;;;2.03;0.50;;;;;;;20.31;33.53;97957.53;4944066;28;20307;-76
2022/07/18 00:41:04;;;;;;;1.42;0.50;;;;;;;20.33;33.01;97970.47;4927563;28;20207;-76
2022/07/18 00:43:29;;;;;;;0.60;0.40;;;;;;;20.29;33.26;97967.63;4924735;28;20298;-76
2022/07/18 00:45:54;;;;;;;0.93;0.47;;;;;;;20.25;32.89;97965.84;4977028;28;20718;-76
2022/07/18 00:48:20;;;;;;;1.35;0.57;;;;;;;20.21;33.37;97963.75;4976775;28;20157;-76
2022/07/18 00:50:49;;;;;;;0.63;0.30;;;;;;;20.07;33.54;97965.56;4927677;28;20334;-76
2022/07/18 00:53:15;;;;;;;0.80;0.40;;;;;;;20.15;33.28;97961.47;4960315;28;20199;-76
2022/07/18 00:55:42;;;;;;;0.70;0.40;;;;;;;20.10;33.41;97958.91;4943680;28;20227;-76
2022/07/18 00:58:09;;;;;;;1.33;0.40;;;;;;;20.06;33.42;97960.56;4926499;28;20355;-76
2022/07/18 01:03:18;;;;;;;4.63;0.70;;;;;;;20.01;33.82;97964.06;4941649;28;20289;-76
2022/07/18 01:05:44;;;;;;;0.70;0.50;;;;;;;20.02;33.51;97971.69;4959771;28;20219;-76
2022/07/18 01:08:09;;;;;;;1.48;0.40;;;;;;;20.00;33.10;97960.63;4944019;28;20199;-76
2022/07/18 01:10:34;;;;;;;1.75;0.50;;;;;;;20.02;33.32;97961.13;4943739;28;20271;-76
2022/07/18 01:13:00;;;;;;;1.08;0.50;;;;;;;20.00;33.35;97951.94;4959980;28;20568;-76
2022/07/18 01:15:26;;;;;;;1.10;0.50;;;;;;;19.99;33.50;97951.13;4959407;28;20173;-76
2022/07/18 01:17:51;;;;;;;1.77;0.40;;;;;;;19.96;33.40;97958.84;4943602;28;20277;-76
2022/07/18 01:20:17;;;;;;;0.68;0.40;;;;;;;19.94;34.03;97951.19;4943844;28;20192;-76
2022/07/18 01:22:42;;;;;;;1.42;0.43;;;;;;;19.89;34.16;97948.63;4946620;28;20219;-76
2022/07/18 01:25:09;;;;;;;1.55;0.40;;;;;;;19.87;34.53;97950.00;4963631;28;20649;-76
2022/07/18 01:27:35;;;;;;;0.80;0.47;;;;;;;19.86;34.35;97957.16;4931088;28;20302;-76
2022/07/18 01:30:00;;;;;;;1.38;0.60;;;;;;;19.82;34.12;97956.13;4946655;28;20829;-76
2022/07/18 01:32:26;;;;;;;1.23;0.57;;;;;;;19.74;34.24;97954.09;4947048;28;20203;-76
2022/07/18 01:34:51;;;;;;;2.83;0.70;;;;;;;19.74;34.12;97954.09;4947155;28;20377;-76
2022/07/18 01:37:17;;;;;;;0.98;0.65;;;;;;;19.68;34.36;97942.81;4930082;28;20709;-76
2022/07/18 01:39:45;;;;;;;0.88;0.50;;;;;;;19.60;34.38;97949.53;4947317;28;20844;-76
2022/07/18 01:42:11;;;;;;;0.70;0.50;;;;;;;19.60;34.29;97944.25;4946883;28;20153;-76
2022/07/18 01:44:37;;;;;;;1.85;0.50;;;;;;;19.65;34.43;97944.19;4926651;28;20203;-76
2022/07/18 01:47:04;;;;;;;0.77;0.30;;;;;;;19.64;34.21;97944.47;4963330;28;20283;-76
2022/07/18 01:49:30;;;;;;;0.57;0.40;;;;;;;19.64;34.03;97947.09;4962924;28;20289;-76
2022/07/18 01:51:56;;;;;;;2.10;0.60;;;;;;;19.65;33.76;97946.00;4914469;28;20636;-76
2022/07/18 01:54:27;;;;;;;1.60;0.60;;;;;;;19.55;34.36;97949.59;4963530;28;20231;-76
2022/07/18 01:56:52;;;;;;;0.82;0.50;;;;;;;19.65;34.34;97944.19;4930331;28;20188;-76
2022/07/18 01:59:18;;;;;;;1.33;0.50;;;;;;;19.63;34.39;97940.22;4946484;28;20196;-76
2022/07/18 02:01:44;;;;;;;1.40;0.70;;;;;;;19.62;33.98;97944.75;4946975;28;20555;-76
2022/07/18 02:04:09;;;;;;;0.82;0.43;;;;;;;19.57;33.97;97934.25;4946427;28;20276;-76
2022/07/18 02:06:35;;;;;;;0.90;0.30;;;;;;;19.55;34.57;97938.22;4946855;28;20329;-76
2022/07/18 02:09:00;;;;;;;1.33;0.75;;;;;;;19.52;34.48;97944.06;4962677;28;20294;-76
2022/07/18 02:11:26;;;;;;;1.80;0.85;;;;;;;19.46;34.97;97935.44;4963090;28;20227;-76
2022/07/18 02:13:51;;;;;;;1.17;0.50;;;;;;;19.42;35.10;97939.72;4962783;28;20353;-76
2022/07/18 02:16:17;;;;;;;1.17;0.32;;;;;;;19.40;34.48;97937.34;4948112;28;20362;-76
2022/07/18 02:18:42;;;;;;;1.30;0.45;;;;;;;19.36;34.46;97932.91;4948010;28;20190;-76
2022/07/18 02:21:08;;;;;;;2.10;0.57;;;;;;;19.35;34.24;97926.84;4946532;28;20200;-76
2022/07/18 02:23:34;;;;;;;0.70;0.40;;;;;;;19.35;34.81;97934.00;4962768;28;20101;-76
2022/07/18 02:25:59;;;;;;;1.27;0.60;;;;;;;19.30;34.77;97929.56;4962804;28;20235;-76
2022/07/18 02:28:25;;;;;;;1.38;0.57;;;;;;;19.31;34.45;97923.19;4945545;28;20274;-76
2022/07/18 02:30:50;;;;;;;1.40;0.43;;;;;;;19.26;34.88;97925.88;4946187;28;20185;-76
2022/07/18 02:33:16;;;;;;;2.75;0.50;;;;;;;19.24;34.69;97925.38;4960853;28;20156;-76
2022/07/18 02:35:42;;;;;;;0.63;0.47;;;;;;;19.20;35.14;97922.53;4947787;28;20239;-76
2022/07/18 02:38:07;;;;;;;0.90;0.30;;;;;;;19.22;34.64;97923.03;4945859;28;20268;-76
2022/07/18 02:40:33;;;;;;;1.10;0.70;;;;;;;19.15;34.95;97922.59;4946115;28;20201;-76
2022/07/18 02:42:58;;;;;;;0.65;0.45;;;;;;;19.16;35.43;97928.66;4916296;28;20227;-76
2022/07/18 02:45:24;;;;;;;1.17;0.47;;;;;;;19.16;35.21;97931.28;4944574;28;20633;-76
2022/07/18 02:47:50;;;;;;;0.75;0.35;;;;;;;19.16;35.04;97926.00;4945751;28;20176;-76
2022/07/18 02:50:16;;;;;;;2.05;0.50;;;;;;;19.14;35.34;97928.94;4945468;28;20690;-76
2022/07/18 02:52:41;;;;;;;1.52;0.68;;;;;;;19.11;35.50;97918.16;4945715;28;20266;-76
2022/07/18 02:55:08;;;;;;;0.63;0.40;;;;;;;19.07;35.25;97923.19;4929405;28;20215;-76
2022/07/18 02:57:34;;;;;;;0.63;0.60;;;;;;;19.03;36.02;97919.56;4962040;28;20250;-76
2022/07/18 02:59:59;;;;;;;2.17;0.50;;;;;;;19.00;35.29;97928.03;4945586;28;20185;-76
2022/07/18 03:02:25;;;;;;;2.47;0.55;;;;;;;18.86;35.22;97920.78;4961627;28;20194;-76
2022/07/18 03:04:50;;;;;;;1.40;0.57;;;;;;;18.82;35.34;97922.41;4945670;28;20279;-76
2022/07/18 03:07:16;;;;;;;0.95;0.50;;;;;;;18.85;36.07;97919.22;4929158;28;20242;-76
2022/07/18 03:09:41;;;;;;;0.90;0.57;;;;;;;18.84;36.13;97922.91;4947336;28;20657;-76
2022/07/18 03:12:07;;;;;;;0.90;0.52;;;;;;;18.86;36.19;97922.63;4945313;28;20215;-76
2022/07/18 03:14:32;;;;;;;0.95;0.55;;;;;;;18.81;36.99;97920.81;4945331;28;20219;-76
2022/07/18 03:16:58;;;;;;;3.65;0.82;;;;;;;18.77;37.71;97919.78;4911482;28;20290;-76
2022/07/18 03:19:23;;;;;;;0.70;0.50;;;;;;;18.77;37.00;97919.78;4945074;28;20189;-76
2022/07/18 03:21:51;;;;;;;1.05;0.63;;;;;;;18.77;36.50;97927.72;4961401;28;20183;-76
2022/07/18 03:24:17;;;;;;;2.47;0.60;;;;;;;18.83;36.35;97920.56;4944874;28;20226;-76
2022/07/18 03:26:43;;;;;;;0.98;0.45;;;;;;;18.86;36.14;97926.06;4947474;28;20313;-76
2022/07/18 03:29:09;;;;;;;0.70;0.50;;;;;;;18.93;35.86;97919.66;4977965;28;20365;-76
2022/07/18 03:31:34;;;;;;;2.25;0.60;;;;;;;18.98;35.44;97925.69;4945011;28;20682;-76
2022/07/18 03:34:00;;;;;;;1.17;0.50;;;;;;;19.05;35.38;97936.69;4960852;28;20273;-76
2022/07/18 03:36:25;;;;;;;1.63;0.45;;;;;;;19.11;35.35;97926.06;4945013;28;20226;-76
2022/07/18 03:38:50;;;;;;;0.95;0.60;;;;;;;19.17;35.18;97925.72;4947003;28;20249;-76
2022/07/18 03:41:16;;;;;;;1.42;0.50;;;;;;;19.24;34.97;97928.84;4961248;28;20232;-76
2022/07/18 03:43:41;;;;;;;2.08;0.80;;;;;;;19.32;34.96;97934.56;4961106;28;20628;-76
2022/07/18 03:46:07;;;;;;;1.27;0.60;;;;;;;19.33;34.88;97930.81;4944575;28;20169;-76
2022/07/18 03:48:33;;;;;;;2.75;0.68;;;;;;;19.33;35.08;97936.09;4944430;28;20161;-76
2022/07/18 03:50:59;;;;;;;0.88;0.40;;;;;;;19.37;34.80;97945.84;4961184;28;20133;-76
2022/07/18 03:53:25;;;;;;;1.58;0.40;;;;;;;19.40;35.17;97939.22;4944702;28;20252;-76
2022/07/18 03:55:50;;;;;;;1.13;0.40;;;;;;;19.43;35.09;97933.34;4945247;28;20207;-76
2022/07/18 03:58:16;;;;;;;1.00;0.50;;;;;;;19.44;35.25;97938.34;4944505;28;20165;-76
2022/07/18 04:00:41;;;;;;;2.45;0.93;;;;;;;19.46;35.74;97946.00;4944378;28;20750;-76
2022/07/18 04:03:07;;;;;;;0.70;0.50;;;;;;;19.47;35.34;97942.28;4960506;28;20200;-76
2022/07/18 04:05:32;;;;;;;1.25;0.55;;;;;;;19.52;34.75;97944.88;4944591;28;20188;-76
2022/07/18 04:07:58;;;;;;;1.33;0.50;;;;;;;19.58;34.16;97940.31;4944461;28;20282;-76
2022/07/18 04:10:23;;;;;;;1.80;0.50;;;;;;;19.63;34.14;97945.53;4960719;28;20188;-75
2022/07/18 04:12:51;;;;;;;1.02;0.40;;;;;;;19.68;34.26;97942.03;4960531;28;20215;-76
2022/07/18 04:15:17;;;;;;;0.98;0.60;;;;;;;19.73;34.74;97947.25;4945895;28;20278;-76
2022/07/18 04:17:43;;;;;;;2.67;0.70;;;;;;;19.69;36.23;97948.88;4960947;28;20177;-76
2022/07/18 04:20:09;;;;;;;1.08;0.60;;;;;;;19.65;36.08;97951.31;4966916;28;20325;-76
2022/07/18 04:22:48;;;;;;;1.13;0.40;;;;;;;19.45;37.02;97955.00;4960397;28;20625;-76
2022/07/18 04:25:13;;;;;;;0.80;0.50;;;;;;;19.61;36.63;97952.94;4960671;28;20180;-76
2022/07/18 04:27:39;;;;;;;1.10;0.60;;;;;;;19.58;37.12;97951.66;4944154;28;20257;-76
2022/07/18 04:30:05;;;;;;;2.03;0.65;;;;;;;19.58;36.90;97943.72;4927276;28;20315;-76
2022/07/18 04:32:30;;;;;;;1.65;0.95;;;;;;;19.59;36.72;97950.59;4928027;28;20245;-76
2022/07/18 04:34:56;;;;;;;1.58;0.50;;;;;;;19.65;37.16;97948.66;4944140;28;20277;-76
2022/07/18 04:37:21;;;;;;;1.10;0.50;;;;;;;19.72;37.71;97945.66;4960561;28;20327;-76
2022/07/18 04:39:46;;;;;;;1.45;0.50;;;;;;;19.78;37.96;97944.56;4960679;28;20633;-76
2022/07/18 04:42:15;;;;;;;1.50;0.40;;;;;;;19.73;37.85;97944.59;4960162;28;20500;-76
2022/07/18 04:44:40;;;;;;;0.93;0.52;;;;;;;19.87;37.86;97940.19;4942761;28;20645;-76
2022/07/18 04:47:05;;;;;;;1.42;0.60;;;;;;;19.93;37.41;97948.84;4943991;28;20199;-76
2022/07/18 04:49:31;;;;;;;1.77;0.52;;;;;;;19.98;37.40;97946.13;4943638;28;20712;-76
2022/07/18 04:51:56;;;;;;;1.35;0.50;;;;;;;20.02;37.70;97941.84;4960061;28;20330;-76
2022/07/18 04:54:22;;;;;;;1.13;0.52;;;;;;;20.06;37.05;97940.19;4943917;28;20669;-76
2022/07/18 04:56:47;;;;;;;0.75;0.50;;;;;;;20.15;36.69;97942.97;4962134;28;20161;-76
2022/07/18 04:59:12;;;;;;;2.10;0.60;;;;;;;20.24;36.85;97946.53;4947410;28;20362;-76
2022/07/18 05:01:38;;;;;;;1.45;0.60;;;;;;;20.31;37.00;97946.97;4946694;28;20184;-76
2022/07/18 05:04:03;;;;;;;1.23;0.50;;;;;;;20.40;36.86;97947.88;4948329;28;20640;-76
2022/07/18 05:06:29;;;;;;;4.82;0.75;;;;;;;20.49;36.54;97944.56;4946959;28;20285;-76
2022/07/18 05:08:54;;;;;;;1.52;0.75;;;;;;;20.59;36.11;97944.38;4947079;28;20246;-76
2022/07/18 05:11:19;;;;;;;0.80;0.50;;;;;;;20.70;35.93;97942.38;4946228;28;20219;-76
2022/07/18 05:13:45;;;;;;;1.08;0.50;;;;;;;20.81;35.51;97949.06;4929416;28;20276;-76
2022/07/18 05:16:10;;;;;;;1.35;0.55;;;;;;;20.94;34.57;97950.97;4930345;28;20203;-76
2022/07/18 05:18:36;;;;;;;3.67;0.70;;;;;;;21.03;33.92;97948.41;4948622;28;20172;-75
2022/07/18 05:21:01;;;;;;;3.38;0.63;;;;;;;21.16;33.60;97943.41;4946752;28;20442;-76
2022/07/18 05:23:26;;;;;;;1.13;0.60;;;;;;;21.25;33.15;97947.72;4930061;28;20720;-75
2022/07/18 05:25:52;;;;;;;1.45;0.80;;;;;;;21.34;32.99;97942.53;4946328;28;20204;-75
2022/07/18 05:28:17;;;;;;;1.23;0.75;;;;;;;21.45;32.90;97937.78;4946339;28;20259;-76
2022/07/18 05:30:43;;;;;;;1.95;0.60;;;;;;;21.55;33.42;97934.19;4946428;28;20192;-76
2022/07/18 05:33:08;;;;;;;1.48;0.63;;;;;;;21.60;33.88;97931.44;4949244;28;20301;-76
2022/07/18 05:35:33;;;;;;;1.40;0.52;;;;;;;21.66;32.76;97938.19;4946218;28;20262;-76
2022/07/18 05:37:59;;;;;;;2.17;0.80;;;;;;;21.68;33.80;97941.34;4946133;28;20191;-76
2022/07/18 05:40:24;;;;;;;0.80;0.50;;;;;;;21.66;34.35;97938.19;4962171;28;20731;-76
2022/07/18 05:42:50;;;;;;;1.23;0.90;;;;;;;21.77;34.62;97942.19;4945882;28;20171;-76
2022/07/18 05:45:15;;;;;;;1.05;0.75;;;;;;;21.87;35.05;97938.53;4943862;28;20199;-76
2022/07/18 05:47:41;;;;;;;2.17;0.60;;;;;;;21.94;35.06;97946.06;4930711;28;20244;-76
2022/07/18 05:50:08;;;;;;;1.52;0.70;;;;;;;21.98;34.90;97944.38;4946915;28;20191;-76
2022/07/18 05:52:33;;;;;;;1.58;0.60;;;;;;;22.10;34.53;97947.28;4946396;28;20340;-76
2022/07/18 05:54:59;;;;;;;3.55;0.70;;;;;;;22.10;33.46;97947.28;4930333;28;20311;-76
2022/07/18 05:57:24;;;;;;;1.75;0.60;;;;;;;22.08;32.90;97938.84;4979922;28;20358;-76
2022/07/18 05:59:49;;;;;;;1.38;0.60;;;;;;;22.19;32.95;97945.50;4946504;28;20352;-76
2022/07/18 06:02:15;;;;;;;1.38;0.70;;;;;;;22.29;32.71;97943.72;4962064;28;20296;-76
2022/07/18 06:04:40;;;;;;;2.53;0.73;;;;;;;22.38;32.29;97944.53;4914133;28;20205;-76
2022/07/18 06:07:06;;;;;;;1.05;0.70;;;;;;;22.54;32.25;97940.44;4960536;28;20286;-76
2022/07/18 06:09:31;;;;;;;1.20;0.70;;;;;;;22.63;32.28;97932.50;4946689;28;20345;-76
2022/07/18 06:12:00;;;;;;;1.33;0.70;;;;;;;22.57;32.38;97942.47;4962882;28;20173;-76
2022/07/18 06:14:29;;;;;;;1.65;0.70;;;;;;;22.61;32.63;97938.13;4946272;28;20629;-76
2022/07/18 06:16:54;;;;;;;1.33;0.70;;;;;;;22.87;32.17;97937.47;4930143;28;20200;-76
2022/07/18 06:19:20;;;;;;;2.40;0.75;;;;;;;23.05;32.75;97937.53;4946318;28;20157;-76
2022/07/18 06:21:46;;;;;;;1.77;0.82;;;;;;;23.17;33.04;97933.25;4926849;28;20200;-76
2022/07/18 06:24:11;;;;;;;0.73;0.60;;;;;;;23.18;31.98;97926.03;4953445;28;20251;-76
2022/07/18 06:26:37;;;;;;;1.15;0.80;;;;;;;23.30;32.65;97930.78;4946218;28;20242;-76
2022/07/18 06:29:02;;;;;;;1.50;0.73;;;;;;;23.49;32.69;97935.81;4962076;28;20211;-76
2022/07/18 06:31:27;;;;;;;2.05;0.80;;;;;;;23.55;32.40;97929.25;4962590;28;20795;-76
2022/07/18 06:33:53;;;;;;;2.97;0.90;;;;;;;23.80;31.72;97926.94;4962393;28;20645;-76
2022/07/18 06:36:21;;;;;;;1.00;0.80;;;;;;;23.92;32.20;97924.44;4946319;28;20277;-76
2022/07/18 06:38:47;;;;;;;2.00;0.77;;;;;;;24.03;31.61;97924.94;4959298;28;20185;-76
2022/07/18 06:41:12;;;;;;;1.13;0.70;;;;;;;24.35;31.29;97931.63;4954591;28;20215;-75
2022/07/18 06:43:38;;;;;;;1.52;0.77;;;;;;;24.49;31.31;97934.09;4940491;28;20322;-76
2022/07/18 06:46:04;;;;;;;1.60;0.80;;;;;;;24.80;31.03;97933.09;4945435;28;20204;-76
2022/07/18 06:48:33;;;;;;;1.15;0.80;;;;;;;25.04;30.31;97938.63;4946594;28;20176;-76
2022/07/18 06:50:59;;;;;;;1.67;0.65;;;;;;;25.01;30.28;97923.28;4961160;28;20188;-76
2022/07/18 06:53:25;;;;;;;1.17;0.73;;;;;;;25.31;30.06;97933.19;4944798;28;20169;-76
2022/07/18 06:55:50;;;;;;;1.85;0.90;;;;;;;25.61;30.37;97929.38;4945136;28;20277;-75
2022/07/18 06:58:16;;;;;;;1.48;0.82;;;;;;;25.86;29.69;97928.72;4928693;28;20295;-75
2022/07/18 07:00:41;;;;;;;1.10;0.88;;;;;;;26.03;28.74;97931.31;4946844;28;20188;-76
2022/07/18 07:03:06;;;;;;;0.80;0.80;;;;;;;26.20;28.48;97927.72;4925449;28;20298;-76
2022/07/18 07:05:32;;;;;;;2.30;0.90;;;;;;;26.54;28.10;97925.78;4960972;28;20161;-76
2022/07/18 07:07:57;;;;;;;1.30;0.80;;;;;;;26.71;27.96;97930.94;4961522;28;20641;-75
2022/07/18 07:10:23;;;;;;;1.83;0.80;;;;;;;27.07;28.00;97931.31;4961378;28;20242;-75
2022/07/18 07:12:50;;;;;;;1.20;0.80;;;;;;;27.34;28.03;97929.88;4928168;28;20245;-76
2022/07/18 07:15:19;;;;;;;2.03;1.00;;;;;;;27.66;27.80;97922.03;4956448;28;20278;-76
2022/07/18 07:17:44;;;;;;;4.25;0.98;;;;;;;27.68;27.01;97917.09;4942354;28;20197;-75
2022/07/18 07:20:11;;;;;;;2.30;0.73;;;;;;;27.86;27.54;97924.84;4947558;28;20653;-76
2022/07/18 07:22:44;;;;;;;1.85;0.82;;;;;;;27.75;27.80;97922.66;4941260;28;20164;-76
2022/07/18 07:25:09;;;;;;;2.28;0.90;;;;;;;27.86;27.69;97922.19;4926962;28;20277;-76
2022/07/18 07:27:35;;;;;;;1.90;1.10;;;;;;;28.15;27.50;97913.06;4944886;28;20269;-76
2022/07/18 07:30:00;;;;;;;1.20;0.85;;;;;;;28.29;26.70;97912.63;4956814;28;20709;-76
2022/07/18 07:32:25;;;;;;;1.20;0.90;;;;;;;28.61;26.67;97915.41;4943738;28;20257;-77
2022/07/18 07:34:51;;;;;;;1.73;0.90;;;;;;;28.76;26.63;97915.38;4942302;28;20188;-77
2022/07/18 07:37:16;;;;;;;1.63;0.80;;;;;;;29.08;26.25;97922.63;4943039;28;20219;-76
2022/07/18 07:39:41;;;;;;;2.65;0.90;;;;;;;29.21;25.69;97912.59;4960671;28;20421;-77
2022/07/18 07:42:07;;;;;;;1.65;1.00;;;;;;;29.44;25.63;97912.69;4943445;28;20299;-77
2022/07/18 07:44:32;;;;;;;1.75;0.80;;;;;;;29.93;24.98;97911.44;4943693;28;20286;-77
2022/07/18 07:46:59;;;;;;;2.35;0.85;;;;;;;29.97;24.68;97909.56;4958938;28;20153;-76
2022/07/18 07:49:25;;;;;;;1.15;0.77;;;;;;;29.99;25.01;97908.09;4944075;28;20646;-77
2022/07/18 07:51:50;;;;;;;1.52;0.70;;;;;;;30.22;24.19;97912.72;4943525;28;20282;-76
2022/07/18 07:54:16;;;;;;;1.73;1.13;;;;;;;30.02;23.86;97914.66;4942461;28;20172;-76
2022/07/18 07:56:41;;;;;;;3.90;0.80;;;;;;;30.22;24.34;97916.19;4943454;28;20302;-76
2022/07/18 07:59:06;;;;;;;2.45;0.90;;;;;;;30.58;24.24;97908.00;4943388;28;20287;-76
2022/07/18 08:01:32;;;;;;;1.98;1.05;;;;;;;30.71;23.71;97909.38;4941446;28;20692;-76
2022/07/18 08:03:58;;;;;;;2.63;0.90;;;;;;;30.70;23.46;97907.81;4967611;28;20178;-76
2022/07/18 08:06:23;;;;;;;1.80;1.08;;;;;;;31.06;22.86;97905.69;4944891;28;20267;-77
2022/07/18 08:08:49;;;;;;;1.13;1.05;;;;;;;31.44;22.72;97905.81;4943683;28;20204;-77
2022/07/18 08:11:14;;;;;;;1.58;1.15;;;;;;;31.74;22.68;97897.78;4927370;28;20242;-76
2022/07/18 08:13:40;;;;;;;1.77;0.95;;;;;;;31.70;22.45;97900.41;4943406;28;20184;-76
2022/07/18 08:16:05;;;;;;;1.73;1.00;;;;;;;31.65;22.21;97895.38;4943146;28;20204;-76
2022/07/18 08:18:31;;;;;;;2.38;1.02;;;;;;;31.55;22.06;97898.69;4943849;28;20663;-77
2022/07/18 08:20:56;;;;;;;1.45;1.00;;;;;;;31.57;22.22;97893.72;4927500;28;20189;-76
2022/07/18 08:23:21;;;;;;;2.58;1.10;;;;;;;31.93;22.04;97894.91;4959888;28;20197;-77
2022/07/18 08:25:47;;;;;;;1.02;0.90;;;;;;;32.06;22.41;97892.75;4945165;28;20641;-77
2022/07/18 08:28:13;;;;;;;1.00;1.00;;;;;;;32.51;21.56;97900.06;4943950;28;20253;-77
2022/07/18 08:30:39;;;;;;;1.50;1.40;;;;;;;32.46;21.51;97901.97;4942893;28;20264;-77
2022/07/18 08:33:06;;;;;;;1.88;1.08;;;;;;;32.82;21.13;97904.22;4943811;28;20763;-77
2022/07/18 08:35:31;;;;;;;2.90;1.85;;;;;;;32.88;20.37;97897.31;4944552;28;20277;-77
2022/07/18 08:37:58;;;;;;;1.73;1.17;;;;;;;32.90;20.50;97905.03;4943809;28;20285;-77
2022/07/18 08:40:23;;;;;;;2.70;1.05;;;;;;;33.11;19.78;97901.69;4976506;28;20282;-77
2022/07/18 08:42:51;;;;;;;2.47;1.13;;;;;;;33.29;19.14;97910.69;4943140;28;20625;-77
2022/07/18 08:45:19;;;;;;;2.22;1.35;;;;;;;33.65;18.27;97904.69;4947156;28;20695;-77
2022/07/18 08:47:45;;;;;;;3.05;1.55;;;;;;;33.81;17.80;97907.09;4959424;28;20309;-77
2022/07/18 08:50:10;;;;;;;3.58;1.60;;;;;;;34.15;16.66;97905.66;4927197;28;20249;-77
2022/07/18 08:52:38;;;;;;;1.38;1.20;;;;;;;34.42;15.51;97893.72;4960038;28;20562;-77
2022/07/18 08:55:06;;;;;;;1.50;1.40;;;;;;;34.77;16.05;97906.50;4931435;28;20301;-77
2022/07/18 08:57:31;;;;;;;2.75;1.00;;;;;;;35.02;16.27;97901.03;4943546;28;20272;-77
2022/07/18 08:59:57;;;;;;;2.25;1.38;;;;;;;35.16;15.51;97894.06;4945235;28;20348;-77
2022/07/18 09:02:26;;;;;;;1.20;1.10;;;;;;;34.89;15.75;97886.38;4943387;28;20110;-77
2022/07/18 09:04:51;;;;;;;1.95;1.33;;;;;;;35.42;15.89;97887.41;4910596;28;20247;-77
2022/07/18 09:07:31;;;;;;;1.20;1.10;;;;;;;35.92;16.17;97883.72;4945631;28;20216;-77
2022/07/18 09:09:59;;;;;;;1.40;1.30;;;;;;;35.93;14.17;97893.41;4969926;28;20704;-77
2022/07/18 09:12:26;;;;;;;1.55;1.30;;;;;;;35.92;14.29;97884.50;4919830;28;20692;-77
2022/07/18 09:14:52;;;;;;;1.95;1.38;;;;;;;35.91;14.98;97888.38;4942886;28;20283;-77
2022/07/18 09:17:23;;;;;;;1.40;1.35;;;;;;;36.20;14.64;97888.19;4909409;28;20209;-76
2022/07/18 09:20:15;;;;;;;1.40;1.30;;;;;;;36.10;14.64;97897.94;4943879;28;20235;-76
2022/07/18 09:22:47;;;;;;;1.85;1.50;;;;;;;35.91;14.80;97895.75;4943186;28;20609;-76
2022/07/18 09:25:14;;;;;;;1.13;1.05;;;;;;;35.85;14.00;97889.97;4907982;28;20323;-76
2022/07/18 09:27:44;;;;;;;1.50;1.40;;;;;;;36.00;14.66;97888.72;4926378;28;20254;-76
2022/07/18 09:30:19;;;;;;;1.67;1.42;;;;;;;35.91;14.62;97887.63;4959094;28;20294;-76
2022/07/18 09:32:54;;;;;;;1.73;1.50;;;;;;;36.29;14.68;97885.81;4944726;28;20270;-76
2022/07/18 09:35:23;;;;;;;1.45;1.30;;;;;;;36.52;14.75;97887.97;4958910;28;20184;-75
2022/07/18 09:37:54;;;;;;;1.65;1.20;;;;;;;36.48;14.70;97891.88;4944963;28;20207;-76
2022/07/18 09:40:22;;;;;;;2.92;1.42;;;;;;;36.55;14.47;97891.81;4945091;28;20211;-76
2022/07/18 09:42:51;;;;;;;1.30;1.23;;;;;;;36.41;14.53;97886.53;4944311;28;20323;-77
2022/07/18 09:45:38;;;;;;;1.60;1.50;;;;;;;36.30;14.24;97881.94;4959378;28;20246;-77
2022/07/18 09:48:06;;;;;;;1.77;1.25;;;;;;;36.73;14.56;97878.13;4912226;28;20286;-77
2022/07/18 09:50:42;;;;;;;1.15;0.93;;;;;;;37.02;14.50;97880.56;4929272;28;20363;-77
2022/07/18 09:53:14;;;;;;;1.17;1.10;;;;;;;37.32;14.43;97882.56;4962991;28;20354;-77
2022/07/18 09:55:48;;;;;;;1.20;1.08;;;;;;;37.08;13.50;97876.97;4929670;28;20547;-76
2022/07/18 09:58:17;;;;;;;1.30;1.20;;;;;;;37.63;12.95;97879.88;4946231;28;20346;-77
2022/07/18 10:00:43;;;;;;;1.73;1.20;;;;;;;37.44;13.45;97878.56;4946600;28;20323;-77
2022/07/18 10:03:08;;;;;;;1.92;1.10;;;;;;;37.38;13.71;97875.53;4946143;28;20267;-77
2022/07/18 10:05:36;;;;;;;1.50;1.20;;;;;;;37.78;14.16;97875.81;4945823;28;20129;-77
2022/07/18 10:08:08;;;;;;;1.52;1.42;;;;;;;37.79;13.01;97871.91;4946244;28;20227;-77
2022/07/18 10:10:34;;;;;;;1.70;1.60;;;;;;;37.92;13.52;97879.50;4946279;28;20799;-77
2022/07/18 10:13:00;;;;;;;1.65;1.55;;;;;;;38.11;13.53;97876.09;4946251;28;20257;-76
2022/07/18 10:15:29;;;;;;;2.60;1.48;;;;;;;38.16;14.11;97869.47;4951817;28;20309;-77
2022/07/18 10:17:55;;;;;;;1.63;1.52;;;;;;;38.28;13.47;97868.88;4930186;28;20410;-77
2022/07/18 10:20:26;;;;;;;2.28;1.58;;;;;;;38.69;13.76;97875.22;4946102;28;20232;-76
2022/07/18 10:22:54;;;;;;;2.35;1.80;;;;;;;38.70;13.20;97882.22;4945214;28;20650;-77
2022/07/18 10:25:21;;;;;;;1.50;1.40;;;;;;;38.73;14.00;97882.16;4961649;28;20692;-76
2022/07/18 10:28:07;;;;;;;1.52;1.08;;;;;;;38.96;13.79;97878.63;4961509;28;20283;-76
2022/07/18 10:30:35;;;;;;;5.68;2.00;;;;;;;39.24;12.75;97868.38;4978401;28;20188;-76
2022/07/18 10:33:01;;;;;;;3.63;2.05;;;;;;;39.49;12.64;97867.16;4961928;28;20204;-75
2022/07/18 10:35:57;;;;;;;1.58;1.48;;;;;;;39.13;13.36;97873.28;4977629;28;20274;-76
2022/07/18 10:38:22;;;;;;;1.88;1.77;;;;;;;39.36;13.20;97879.84;4978106;28;20678;-77
2022/07/18 10:41:11;;;;;;;2.53;2.10;;;;;;;39.77;12.57;97873.16;4944866;28;20260;-77
2022/07/18 10:43:39;;;;;;;1.58;1.45;;;;;;;38.73;13.75;97878.66;4943228;28;20181;-77
2022/07/18 10:46:06;;;;;;;1.75;1.50;;;;;;;38.20;13.72;97879.13;4937907;28;20451;-76
2022/07/18 10:48:32;;;;;;;1.67;1.55;;;;;;;38.25;13.93;97874.38;4946507;28;20176;-76
2022/07/18 10:51:06;;;;;;;1.98;1.23;;;;;;;38.54;13.14;97870.03;4947236;28;20200;-77
2022/07/18 10:53:53;;;;;;;1.50;1.50;;;;;;;38.71;13.77;97867.41;4945865;28;20283;-77
2022/07/18 10:56:39;;;;;;;1.58;1.58;;;;;;;39.07;13.65;97864.06;4946266;28;20246;-76
2022/07/18 10:59:24;;;;;;;6.10;1.90;;;;;;;39.79;12.99;97857.13;4945151;28;20223;-77
2022/07/18 11:01:54;;;;;;;1.80;1.70;;;;;;;39.91;12.36;97859.19;4955717;28;20260;-76
2022/07/18 11:04:39;;;;;;;1.60;1.50;;;;;;;39.77;13.92;97862.25;4944898;28;20215;-77
2022/07/18 11:07:12;;;;;;;2.33;2.00;;;;;;;39.50;12.65;97863.22;4949548;28;20111;-76
2022/07/18 11:09:38;;;;;;;1.48;1.38;;;;;;;39.79;12.26;97852.44;4961595;28;20595;-76
2022/07/18 11:12:17;;;;;;;2.20;2.10;;;;;;;39.53;12.60;97859.66;4943825;28;20204;-77
2022/07/18 11:15:02;;;;;;;1.85;1.75;;;;;;;39.32;12.84;97856.16;4944579;28;20239;-76
2022/07/18 11:17:59;;;;;;;1.77;1.67;;;;;;;38.73;13.63;97856.88;4927919;28;20282;-77
2022/07/18 11:20:38;;;;;;;2.72;1.60;;;;;;;38.16;14.18;97845.00;4946666;28;20242;-76
2022/07/18 11:23:13;;;;;;;1.77;1.63;;;;;;;38.39;13.76;97842.28;4910584;28;20279;-77
2022/07/18 11:25:38;;;;;;;1.95;1.70;;;;;;;38.40;14.53;97849.28;4944163;28;20197;-77
2022/07/18 11:28:08;;;;;;;1.90;1.80;;;;;;;38.32;14.04;97838.91;4927828;28;20575;-76
2022/07/18 11:30:33;;;;;;;1.80;1.70;;;;;;;38.54;14.12;97831.13;4928155;28;20246;-76
2022/07/18 11:32:59;;;;;;;1.50;1.40;;;;;;;38.48;13.60;97838.25;4925658;28;20206;-77
2022/07/18 11:35:25;;;;;;;2.13;1.92;;;;;;;38.35;13.50;97840.78;4958299;28;20749;-76
2022/07/18 11:37:52;;;;;;;1.77;1.55;;;;;;;38.31;13.47;97842.81;4942282;28;20740;-76